Time;durP1;ratioP1;P1;durP2;ratioP2;P2;SDS_P1;SDS_P2;PMS_P1;PMS_P2;Temp;Humidity;BMP_temperature;BMP_pressure;BME280_temperature;BME280_humidity;BME280_pressure;Samples;Min_cycle;Max_cycle;Signal;HPM_P1;HPM_P2
2023/02/27 00:02:14;;;;;;;7.03;1.52;;;4.00;79.30;;;;;;4893536;29;20407;-76
2023/02/27 00:04:40;;;;;;;1.10;0.57;;;4.00;78.90;;;;;;4906031;29;20056;-75
2023/02/27 00:07:06;;;;;;;2.88;0.80;;;3.90;78.90;;;;;;4898231;29;20994;-76
2023/02/27 00:09:32;;;;;;;1.83;0.93;;;4.00;78.80;;;;;;4896213;29;20052;-76
2023/02/27 00:11:58;;;;;;;0.68;0.30;;;4.00;78.30;;;;;;4897317;29;20020;-76
2023/02/27 00:14:23;;;;;;;1.70;0.77;;;4.00;78.20;;;;;;4900531;29;20095;-76
2023/02/27 00:16:49;;;;;;;0.90;0.50;;;4.00;78.40;;;;;;4903998;29;20058;-76
2023/02/27 00:19:15;;;;;;;1.45;0.30;;;4.00;78.10;;;;;;4904780;29;20059;-76
2023/02/27 00:21:43;;;;;;;2.90;0.57;;;4.00;77.50;;;;;;4902337;29;20040;-76
2023/02/27 00:24:09;;;;;;;1.27;0.40;;;4.10;77.50;;;;;;4900541;29;20041;-75
2023/02/27 00:26:35;;;;;;;1.15;0.43;;;4.00;77.20;;;;;;4898499;29;20513;-76
2023/02/27 00:29:01;;;;;;;1.67;0.55;;;4.10;76.50;;;;;;4910692;29;20040;-76
2023/02/27 00:31:26;;;;;;;0.85;0.55;;;4.10;77.10;;;;;;4908934;29;20483;-76
2023/02/27 00:33:52;;;;;;;0.98;0.40;;;4.20;77.60;;;;;;4900332;29;20035;-76
2023/02/27 00:36:18;;;;;;;1.98;0.50;;;4.20;77.30;;;;;;4904609;29;20386;-76
2023/02/27 00:38:43;;;;;;;1.65;0.50;;;4.20;77.50;;;;;;4905939;29;20135;-76
2023/02/27 00:41:09;;;;;;;1.08;0.40;;;4.20;77.90;;;;;;4900602;29;20590;-76
2023/02/27 00:43:35;;;;;;;2.28;0.52;;;4.10;77.00;;;;;;4894835;29;20511;-76
2023/02/27 00:46:00;;;;;;;0.50;0.30;;;4.20;77.40;;;;;;4897676;29;20039;-76
2023/02/27 00:48:26;;;;;;;0.57;0.30;;;4.20;77.00;;;;;;4900736;29;20028;-76
2023/02/27 00:50:51;;;;;;;2.47;0.85;;;4.10;77.00;;;;;;4900422;29;20059;-76
2023/02/27 00:53:17;;;;;;;1.42;0.63;;;4.10;77.30;;;;;;4895817;29;20029;-76
2023/02/27 00:55:43;;;;;;;0.63;0.40;;;4.10;77.20;;;;;;4900418;29;20097;-76
2023/02/27 00:58:09;;;;;;;0.60;0.25;;;4.20;77.30;;;;;;4893291;29;20036;-76
2023/02/27 01:00:34;;;;;;;0.90;0.40;;;4.20;76.90;;;;;;4900076;29;20028;-76
2023/02/27 01:03:00;;;;;;;1.05;0.40;;;4.20;76.60;;;;;;4892689;29;20455;-76
2023/02/27 01:05:26;;;;;;;1.13;0.40;;;4.20;76.10;;;;;;4906778;29;20035;-76
2023/02/27 01:07:52;;;;;;;0.60;0.50;;;4.20;75.70;;;;;;4911206;29;20032;-76
2023/02/27 01:10:18;;;;;;;1.35;0.40;;;4.20;75.90;;;;;;4909217;29;20084;-76
2023/02/27 01:12:44;;;;;;;1.10;0.50;;;4.20;76.60;;;;;;4904193;29;20036;-76
2023/02/27 01:15:10;;;;;;;1.88;0.40;;;4.20;76.00;;;;;;4902258;29;20486;-76
2023/02/27 01:17:36;;;;;;;4.47;0.47;;;4.20;76.60;;;;;;4900526;29;20032;-76
2023/02/27 01:20:03;;;;;;;1.67;0.50;;;4.10;76.50;;;;;;4893178;29;20044;-76
2023/02/27 01:22:29;;;;;;;2.55;0.77;;;4.20;76.30;;;;;;4901806;29;20029;-76
2023/02/27 01:24:54;;;;;;;0.80;0.30;;;4.20;76.40;;;;;;4909113;29;20046;-76
2023/02/27 01:27:20;;;;;;;0.47;0.30;;;4.20;76.40;;;;;;4902281;29;20063;-76
2023/02/27 01:29:46;;;;;;;2.83;0.30;;;4.20;76.80;;;;;;4902141;29;20071;-76
2023/02/27 01:32:11;;;;;;;0.55;0.30;;;4.20;76.60;;;;;;4898078;29;20032;-76
2023/02/27 01:34:37;;;;;;;0.38;0.30;;;4.20;76.20;;;;;;4898667;29;20036;-76
2023/02/27 01:37:03;;;;;;;0.73;0.55;;;4.20;76.30;;;;;;4895118;29;20391;-76
2023/02/27 01:39:28;;;;;;;0.43;0.30;;;4.20;76.70;;;;;;4897443;29;20028;-76
2023/02/27 01:41:55;;;;;;;1.15;0.50;;;4.20;76.20;;;;;;4898227;29;20033;-76
2023/02/27 01:44:20;;;;;;;0.68;0.45;;;4.30;76.60;;;;;;4902266;29;20051;-76
2023/02/27 01:46:46;;;;;;;1.30;0.43;;;4.30;76.90;;;;;;4903709;29;20036;-76
2023/02/27 01:49:19;;;;;;;0.60;0.30;;;4.20;77.30;;;;;;4905908;29;20052;-75
2023/02/27 01:51:48;;;;;;;2.33;0.75;;;4.20;77.30;;;;;;4899382;29;20036;-76
2023/02/27 01:54:19;;;;;;;0.65;0.35;;;4.20;77.20;;;;;;4907436;29;20080;-75
2023/02/27 01:56:45;;;;;;;1.45;0.50;;;4.10;77.40;;;;;;4903433;29;20036;-76
2023/02/27 01:59:12;;;;;;;1.45;0.60;;;4.20;77.40;;;;;;4908105;29;20028;-76
2023/02/27 02:01:38;;;;;;;1.23;0.52;;;4.20;77.60;;;;;;4914802;29;20039;-76
2023/02/27 02:04:26;;;;;;;0.47;0.40;;;4.20;77.60;;;;;;4913670;29;20036;-76
2023/02/27 02:06:58;;;;;;;3.63;0.70;;;4.20;77.30;;;;;;4914534;29;20032;-76
2023/02/27 02:09:26;;;;;;;0.50;0.30;;;4.20;77.50;;;;;;4902485;29;20028;-76
2023/02/27 02:11:53;;;;;;;1.25;0.55;;;4.30;78.40;;;;;;4896613;29;20391;-76
2023/02/27 02:14:18;;;;;;;0.88;0.22;;;4.20;78.90;;;;;;4903341;29;20048;-76
2023/02/27 02:17:02;;;;;;;0.57;0.40;;;4.00;78.30;;;;;;4900792;29;20028;-76
2023/02/27 02:19:46;;;;;;;0.50;0.25;;;4.00;78.70;;;;;;4902370;29;20499;-76
2023/02/27 02:22:32;;;;;;;0.82;0.38;;;4.10;78.60;;;;;;4904089;29;20506;-76
2023/02/27 02:25:18;;;;;;;1.48;0.50;;;4.20;77.10;;;;;;4907769;29;20403;-76
2023/02/27 02:28:04;;;;;;;0.88;0.40;;;4.20;77.80;;;;;;4903488;29;20036;-76
2023/02/27 02:30:57;;;;;;;0.98;0.60;;;4.10;79.10;;;;;;4900290;29;20036;-76
2023/02/27 02:33:53;;;;;;;0.88;0.43;;;4.10;79.30;;;;;;4914271;29;20479;-76
2023/02/27 02:36:47;;;;;;;1.65;0.30;;;4.10;79.20;;;;;;4908085;29;20506;-76
2023/02/27 02:39:24;;;;;;;2.15;0.30;;;4.10;78.30;;;;;;4912401;29;20068;-76
2023/02/27 02:41:50;;;;;;;0.77;0.40;;;4.10;78.30;;;;;;4899580;29;20688;-76
2023/02/27 02:44:27;;;;;;;4.47;0.70;;;4.10;77.90;;;;;;4909150;29;20036;-76
2023/02/27 02:47:18;;;;;;;3.95;0.43;;;4.10;78.40;;;;;;4901955;29;20075;-76
2023/02/27 02:50:07;;;;;;;0.95;0.65;;;4.10;78.90;;;;;;4899077;29;20056;-76
2023/02/27 02:52:51;;;;;;;2.35;0.75;;;4.00;78.20;;;;;;4901183;29;20126;-76
2023/02/27 02:55:51;;;;;;;0.88;0.68;;;4.00;78.30;;;;;;4903126;29;20026;-76
2023/02/27 02:58:29;;;;;;;0.35;0.22;;;4.20;78.70;;;;;;4903086;29;20036;-76
2023/02/27 03:01:12;;;;;;;0.75;0.40;;;4.10;78.90;;;;;;4905507;29;20028;-76
2023/02/27 03:03:44;;;;;;;1.13;0.50;;;4.10;79.20;;;;;;4897980;29;20039;-76
2023/02/27 03:06:19;;;;;;;2.83;0.30;;;4.10;78.60;;;;;;4902632;29;20033;-76
2023/02/27 03:08:57;;;;;;;1.23;0.40;;;4.10;78.30;;;;;;4901824;29;20028;-76
2023/02/27 03:11:26;;;;;;;0.82;0.52;;;4.30;78.00;;;;;;4911872;29;20078;-75
2023/02/27 03:14:29;;;;;;;0.38;0.20;;;4.20;78.30;;;;;;4899231;29;20035;-76
2023/02/27 03:17:00;;;;;;;1.10;0.35;;;4.20;77.80;;;;;;4899624;29;20049;-76
2023/02/27 03:19:38;;;;;;;0.32;0.30;;;4.20;77.30;;;;;;4902366;29;20463;-76
2023/02/27 03:22:15;;;;;;;2.15;0.43;;;4.30;77.30;;;;;;4910464;29;20028;-76
2023/02/27 03:24:51;;;;;;;0.93;0.47;;;4.20;77.50;;;;;;4906188;29;20040;-76
2023/02/27 03:27:18;;;;;;;1.73;0.60;;;4.30;77.80;;;;;;4896266;29;20041;-76
2023/02/27 03:29:53;;;;;;;0.88;0.40;;;4.20;78.00;;;;;;4902713;29;20505;-76
2023/02/27 03:32:44;;;;;;;1.20;0.38;;;4.30;77.50;;;;;;4913182;29;20103;-76
2023/02/27 03:35:11;;;;;;;2.05;0.38;;;4.30;77.40;;;;;;4906327;29;20846;-76
2023/02/27 03:37:52;;;;;;;0.93;0.40;;;4.10;78.80;;;;;;4901721;29;20029;-76
2023/02/27 03:40:43;;;;;;;0.90;0.50;;;4.10;78.30;;;;;;4898990;29;20035;-76
2023/02/27 03:43:46;;;;;;;1.83;0.43;;;4.00;77.90;;;;;;4913024;29;20040;-76
2023/02/27 03:46:23;;;;;;;1.17;0.40;;;4.00;77.20;;;;;;4903707;29;20038;-76
2023/02/27 03:48:49;;;;;;;1.08;0.35;;;4.10;77.40;;;;;;4898849;29;20094;-76
2023/02/27 03:51:23;;;;;;;1.02;0.47;;;4.10;76.80;;;;;;4903424;29;20028;-76
2023/02/27 03:54:04;;;;;;;1.55;0.40;;;4.10;76.80;;;;;;4911226;29;20043;-76
2023/02/27 03:56:57;;;;;;;1.95;0.68;;;4.10;77.10;;;;;;4897225;29;20033;-76
2023/02/27 03:59:24;;;;;;;2.33;0.93;;;4.10;76.50;;;;;;4906368;29;20029;-76
2023/02/27 04:01:51;;;;;;;0.90;0.60;;;4.10;76.50;;;;;;4898477;29;20052;-75
2023/02/27 04:04:17;;;;;;;0.93;0.50;;;4.20;76.70;;;;;;4900348;29;20132;-75
2023/02/27 04:07:24;;;;;;;0.98;0.40;;;4.20;76.70;;;;;;4899766;29;20044;-75
2023/02/27 04:09:55;;;;;;;0.75;0.40;;;4.10;77.00;;;;;;4877489;29;20043;-75
2023/02/27 04:12:39;;;;;;;0.55;0.35;;;4.10;77.00;;;;;;4890714;29;20119;-75
2023/02/27 04:15:08;;;;;;;0.55;0.28;;;4.10;76.90;;;;;;4896855;29;20088;-75
2023/02/27 04:17:51;;;;;;;0.38;0.30;;;4.10;76.80;;;;;;4896124;29;20033;-75
2023/02/27 04:20:43;;;;;;;0.75;0.30;;;4.10;76.80;;;;;;4889690;29;20032;-75
2023/02/27 04:23:42;;;;;;;1.23;0.35;;;4.10;77.20;;;;;;4888519;29;20036;-75
2023/02/27 04:26:20;;;;;;;1.15;0.40;;;4.20;78.30;;;;;;4902789;29;20539;-75
2023/02/27 04:28:49;;;;;;;0.88;0.30;;;4.20;78.00;;;;;;4890220;29;20029;-75
2023/02/27 04:31:23;;;;;;;1.63;0.60;;;4.10;76.30;;;;;;4909001;29;20114;-75
2023/02/27 04:33:54;;;;;;;2.15;0.30;;;4.20;76.40;;;;;;4895015;29;20052;-75
2023/02/27 04:36:40;;;;;;;1.60;0.50;;;4.10;78.70;;;;;;4894223;29;20031;-75
2023/02/27 04:39:11;;;;;;;0.57;0.40;;;4.20;77.70;;;;;;4898433;29;20040;-75
2023/02/27 04:41:52;;;;;;;0.95;0.35;;;4.10;78.20;;;;;;4912860;29;20060;-75
2023/02/27 04:44:19;;;;;;;0.35;0.20;;;4.10;77.30;;;;;;4893398;29;21603;-75
2023/02/27 04:46:47;;;;;;;0.82;0.30;;;4.10;76.80;;;;;;4897262;29;20045;-75
2023/02/27 04:49:19;;;;;;;0.70;0.35;;;4.20;76.30;;;;;;4903204;29;20087;-75
2023/02/27 04:51:57;;;;;;;1.67;0.60;;;4.20;75.90;;;;;;4892142;29;20119;-75
2023/02/27 04:54:44;;;;;;;0.73;0.35;;;4.20;76.60;;;;;;4890698;29;20928;-75
2023/02/27 04:57:15;;;;;;;1.45;0.32;;;4.20;75.90;;;;;;4902019;29;20028;-75
2023/02/27 04:59:44;;;;;;;3.35;0.55;;;4.30;78.00;;;;;;4893703;29;20111;-75
2023/02/27 05:02:25;;;;;;;0.43;0.30;;;4.10;75.90;;;;;;4893599;29;20040;-75
2023/02/27 05:05:00;;;;;;;1.00;0.55;;;4.20;76.40;;;;;;4905085;29;20043;-75
2023/02/27 05:07:32;;;;;;;4.00;0.70;;;4.20;77.50;;;;;;4892549;29;20035;-75
2023/02/27 05:10:18;;;;;;;1.30;0.40;;;4.20;75.80;;;;;;4896452;29;20032;-75
2023/02/27 05:12:49;;;;;;;1.85;0.70;;;4.30;75.40;;;;;;4886999;29;20059;-75
2023/02/27 05:15:35;;;;;;;0.63;0.30;;;4.30;75.90;;;;;;4893961;29;20032;-76
2023/02/27 05:18:05;;;;;;;1.05;0.32;;;4.30;76.50;;;;;;4892250;29;20032;-75
2023/02/27 05:20:53;;;;;;;1.73;0.65;;;4.20;76.60;;;;;;4899883;29;20032;-75
2023/02/27 05:23:43;;;;;;;0.90;0.35;;;4.40;76.60;;;;;;4894686;29;20113;-75
2023/02/27 05:26:15;;;;;;;0.20;0.20;;;4.20;75.00;;;;;;4893292;29;20039;-75
2023/02/27 05:28:59;;;;;;;0.82;0.40;;;4.30;74.90;;;;;;4896397;29;20044;-75
2023/02/27 05:31:31;;;;;;;0.68;0.40;;;4.20;75.40;;;;;;4899412;29;20036;-75
2023/02/27 05:34:11;;;;;;;1.55;0.50;;;4.20;74.70;;;;;;4904702;29;20028;-75
2023/02/27 05:36:44;;;;;;;0.82;0.43;;;4.30;75.30;;;;;;4891803;29;20111;-75
2023/02/27 05:39:12;;;;;;;1.45;0.57;;;4.30;75.10;;;;;;4894143;29;20037;-75
2023/02/27 05:41:47;;;;;;;1.30;0.55;;;4.20;76.70;;;;;;4888524;29;20403;-76
2023/02/27 05:44:24;;;;;;;1.75;0.50;;;4.30;75.20;;;;;;4892141;29;20055;-75
2023/02/27 05:46:58;;;;;;;2.47;0.50;;;4.30;76.30;;;;;;4895810;29;20028;-75
2023/02/27 05:49:35;;;;;;;2.10;0.65;;;4.30;75.70;;;;;;4901087;29;20095;-75
2023/02/27 05:52:06;;;;;;;1.02;0.30;;;4.30;76.30;;;;;;4898527;29;20032;-75
2023/02/27 05:54:49;;;;;;;0.40;0.30;;;4.30;77.20;;;;;;4901652;29;20083;-75
2023/02/27 05:57:21;;;;;;;1.17;0.50;;;4.20;76.70;;;;;;4892492;29;20526;-75
2023/02/27 05:59:57;;;;;;;0.50;0.28;;;4.30;76.70;;;;;;4887483;29;20240;-75
2023/02/27 06:02:23;;;;;;;0.90;0.40;;;4.30;77.00;;;;;;4893855;29;20032;-75
2023/02/27 06:04:49;;;;;;;1.02;0.70;;;4.30;77.00;;;;;;4891547;29;20135;-75
2023/02/27 06:07:14;;;;;;;2.25;0.55;;;4.20;77.00;;;;;;4891590;29;20156;-75
2023/02/27 06:09:43;;;;;;;0.55;0.30;;;4.30;77.40;;;;;;4893934;29;20032;-75
2023/02/27 06:12:08;;;;;;;1.13;0.52;;;4.30;77.60;;;;;;4896277;29;20118;-75
2023/02/27 06:14:34;;;;;;;0.55;0.40;;;4.40;78.10;;;;;;4896668;29;20029;-75
2023/02/27 06:16:59;;;;;;;0.65;0.30;;;4.30;78.00;;;;;;4901706;29;20479;-75
2023/02/27 06:19:25;;;;;;;1.33;0.70;;;4.20;78.40;;;;;;4898035;29;20120;-75
2023/02/27 06:21:51;;;;;;;2.67;0.52;;;4.20;78.50;;;;;;4894694;29;20076;-75
2023/02/27 06:24:16;;;;;;;1.05;0.60;;;4.20;78.40;;;;;;4893643;29;20546;-75
2023/02/27 06:26:42;;;;;;;1.65;0.75;;;4.20;78.70;;;;;;4890568;29;20097;-76
2023/02/27 06:29:07;;;;;;;1.67;0.60;;;4.10;78.80;;;;;;4909300;29;20024;-76
2023/02/27 06:31:33;;;;;;;0.68;0.40;;;4.30;78.80;;;;;;4899397;29;20031;-77
2023/02/27 06:33:59;;;;;;;0.93;0.40;;;4.30;78.70;;;;;;4897386;29;20426;-78
2023/02/27 06:36:24;;;;;;;3.30;0.50;;;4.20;79.10;;;;;;4892212;29;20583;-78
2023/02/27 06:38:50;;;;;;;1.42;0.40;;;4.30;79.50;;;;;;4888283;29;20491;-76
2023/02/27 06:41:16;;;;;;;1.70;0.73;;;4.30;79.40;;;;;;4889909;29;20032;-78
2023/02/27 06:43:42;;;;;;;1.90;0.65;;;4.30;79.60;;;;;;4889903;29;20128;-76
2023/02/27 06:46:07;;;;;;;0.88;0.45;;;4.20;80.30;;;;;;4893604;29;20059;-78
2023/02/27 06:48:33;;;;;;;1.60;0.43;;;4.20;79.90;;;;;;4898572;29;20039;-78
2023/02/27 06:50:59;;;;;;;6.53;0.90;;;4.20;80.20;;;;;;4888864;29;20039;-77
2023/02/27 06:53:25;;;;;;;1.42;0.80;;;4.10;80.20;;;;;;4893752;29;20455;-77
2023/02/27 06:55:51;;;;;;;2.40;0.55;;;4.10;80.60;;;;;;4896262;29;20032;-77
2023/02/27 06:58:17;;;;;;;1.83;0.73;;;4.30;80.90;;;;;;4896420;29;20188;-78
2023/02/27 07:00:43;;;;;;;1.50;0.40;;;4.30;81.10;;;;;;4897354;29;20079;-77
2023/02/27 07:03:09;;;;;;;1.38;0.50;;;4.30;80.60;;;;;;4892897;29;20040;-77
2023/02/27 07:05:35;;;;;;;4.40;0.50;;;4.30;80.90;;;;;;4900776;29;20071;-78
2023/02/27 07:08:02;;;;;;;1.48;0.60;;;4.20;80.80;;;;;;4897844;29;20111;-78
2023/02/27 07:10:29;;;;;;;0.85;0.40;;;4.30;80.60;;;;;;4897741;29;20029;-77
2023/02/27 07:12:54;;;;;;;3.20;0.60;;;4.40;80.70;;;;;;4894826;29;20044;-77
2023/02/27 07:15:21;;;;;;;1.55;0.63;;;4.40;80.60;;;;;;4896395;29;20029;-78
2023/02/27 07:17:46;;;;;;;2.00;0.73;;;4.40;80.30;;;;;;4901615;29;20032;-78
2023/02/27 07:20:13;;;;;;;2.25;0.60;;;4.20;80.10;;;;;;4888075;29;20095;-78
2023/02/27 07:22:39;;;;;;;1.88;0.73;;;4.10;80.10;;;;;;4895074;29;20518;-78
2023/02/27 07:25:06;;;;;;;1.88;0.90;;;4.30;80.30;;;;;;4890881;29;20063;-77
2023/02/27 07:27:32;;;;;;;1.13;0.50;;;4.30;79.80;;;;;;4895090;29;20480;-77
2023/02/27 07:29:57;;;;;;;0.50;0.30;;;4.40;80.00;;;;;;4900858;29;20056;-76
2023/02/27 07:32:23;;;;;;;10.68;1.35;;;4.40;79.90;;;;;;4892147;29;20124;-77
2023/02/27 07:34:49;;;;;;;1.70;0.52;;;4.50;80.80;;;;;;4896570;29;20067;-78
2023/02/27 07:37:14;;;;;;;4.45;0.70;;;4.60;79.60;;;;;;4891389;29;20072;-78
2023/02/27 07:39:40;;;;;;;1.83;0.57;;;4.40;79.70;;;;;;4897049;29;20040;-78
2023/02/27 07:42:06;;;;;;;1.35;0.45;;;4.60;79.90;;;;;;4895938;29;20627;-78
2023/02/27 07:44:32;;;;;;;0.85;0.50;;;4.70;80.20;;;;;;4896541;29;20044;-77
2023/02/27 07:46:57;;;;;;;0.77;0.60;;;4.70;79.40;;;;;;4896264;29;20029;-76
2023/02/27 07:49:23;;;;;;;2.35;0.90;;;4.80;79.70;;;;;;4898064;29;20058;-76
2023/02/27 07:51:49;;;;;;;0.85;0.35;;;4.80;80.20;;;;;;4892578;29;20499;-78
2023/02/27 07:54:14;;;;;;;1.98;0.55;;;4.80;79.90;;;;;;4898331;29;20104;-78
2023/02/27 07:56:40;;;;;;;0.80;0.35;;;4.80;80.30;;;;;;4900091;29;20614;-76
2023/02/27 07:59:06;;;;;;;0.88;0.60;;;4.50;81.60;;;;;;4893545;29;20455;-76
2023/02/27 08:01:31;;;;;;;2.53;0.65;;;4.40;81.60;;;;;;4900538;29;20457;-76
2023/02/27 08:03:57;;;;;;;1.52;0.47;;;4.50;82.00;;;;;;4892122;29;20161;-76
2023/02/27 08:06:23;;;;;;;4.32;0.70;;;4.50;81.80;;;;;;4892144;29;20032;-76
2023/02/27 08:08:50;;;;;;;1.33;0.47;;;4.70;82.40;;;;;;4891196;29;20610;-77
2023/02/27 08:11:17;;;;;;;2.10;0.57;;;4.60;82.20;;;;;;4902240;29;20119;-76
2023/02/27 08:13:44;;;;;;;1.08;0.60;;;4.50;82.60;;;;;;4889214;29;20042;-75
2023/02/27 08:16:10;;;;;;;1.33;0.50;;;4.70;83.00;;;;;;4894280;29;20082;-76
2023/02/27 08:18:35;;;;;;;2.50;0.45;;;4.80;81.60;;;;;;4898432;29;20139;-76
2023/02/27 08:21:03;;;;;;;1.15;0.52;;;4.70;81.30;;;;;;4892971;29;20039;-76
2023/02/27 08:23:29;;;;;;;2.70;0.47;;;4.70;81.40;;;;;;4895033;29;20399;-75
2023/02/27 08:25:57;;;;;;;2.05;0.60;;;4.80;80.80;;;;;;4901337;29;20059;-76
2023/02/27 08:28:23;;;;;;;0.68;0.38;;;4.90;81.00;;;;;;4900157;29;20028;-75
2023/02/27 08:30:49;;;;;;;0.73;0.35;;;5.10;81.10;;;;;;4903682;29;20134;-76
2023/02/27 08:33:15;;;;;;;0.90;0.55;;;5.20;80.50;;;;;;4894793;29;20131;-76
2023/02/27 08:35:40;;;;;;;1.95;0.60;;;5.20;80.00;;;;;;4900823;29;20376;-75
2023/02/27 08:38:06;;;;;;;0.85;0.65;;;5.20;81.10;;;;;;4899674;29;20594;-76
2023/02/27 08:40:32;;;;;;;3.25;0.68;;;5.30;80.00;;;;;;4898849;29;20090;-75
2023/02/27 08:42:57;;;;;;;1.83;0.80;;;5.40;80.00;;;;;;4894628;29;20503;-76
2023/02/27 08:45:23;;;;;;;2.55;0.90;;;5.40;80.20;;;;;;4889791;29;20044;-76
2023/02/27 08:47:49;;;;;;;1.58;0.60;;;5.50;80.50;;;;;;4900292;29;20040;-74
2023/02/27 08:50:14;;;;;;;1.23;0.68;;;5.50;79.00;;;;;;4887337;29;20411;-76
2023/02/27 08:52:40;;;;;;;1.58;0.70;;;5.60;78.60;;;;;;4894925;29;20646;-76
2023/02/27 08:55:06;;;;;;;5.15;1.58;;;5.50;78.20;;;;;;4893058;29;20028;-76
2023/02/27 08:57:32;;;;;;;5.25;0.88;;;5.50;77.50;;;;;;4896755;29;20062;-76
2023/02/27 08:59:58;;;;;;;2.67;1.10;;;5.40;77.50;;;;;;4895464;29;20047;-76
2023/02/27 09:02:25;;;;;;;1.45;0.60;;;5.60;76.70;;;;;;4893897;29;20495;-76
2023/02/27 09:04:51;;;;;;;2.55;0.82;;;5.70;77.40;;;;;;4893303;29;20052;-76
2023/02/27 09:07:18;;;;;;;2.72;0.80;;;5.60;76.90;;;;;;4891166;29;20035;-76
2023/02/27 09:09:44;;;;;;;4.38;1.00;;;5.70;77.00;;;;;;4894951;29;20046;-77
2023/02/27 09:12:10;;;;;;;3.15;0.50;;;5.70;76.50;;;;;;4897263;29;20028;-76
2023/02/27 09:14:35;;;;;;;3.95;1.42;;;5.80;76.40;;;;;;4893023;29;20041;-76
2023/02/27 09:17:01;;;;;;;3.13;0.70;;;5.80;76.60;;;;;;4892953;29;20659;-76
2023/02/27 09:19:27;;;;;;;2.83;1.58;;;6.00;76.80;;;;;;4898095;29;20070;-76
2023/02/27 09:21:53;;;;;;;5.22;0.70;;;5.90;76.70;;;;;;4887032;29;20456;-76
2023/02/27 09:24:19;;;;;;;1.17;0.63;;;5.90;76.50;;;;;;4895046;29;20056;-76
2023/02/27 09:26:44;;;;;;;2.03;0.60;;;5.90;76.20;;;;;;4887665;29;20059;-76
2023/02/27 09:29:10;;;;;;;1.63;0.80;;;5.90;75.80;;;;;;4890194;29;20653;-76
2023/02/27 09:31:36;;;;;;;2.72;1.10;;;6.10;76.60;;;;;;4890497;29;20391;-77
2023/02/27 09:34:02;;;;;;;1.92;0.68;;;6.40;77.00;;;;;;4903598;29;20091;-76
2023/02/27 09:36:28;;;;;;;4.78;0.70;;;6.20;75.00;;;;;;4899384;29;20487;-76
2023/02/27 09:38:54;;;;;;;1.55;0.68;;;6.20;75.20;;;;;;4895049;29;20031;-76
2023/02/27 09:41:43;;;;;;;1.75;0.60;;;6.30;76.10;;;;;;4891743;29;20070;-77
2023/02/27 09:44:20;;;;;;;2.13;0.80;;;6.30;75.20;;;;;;4894412;29;20095;-76
2023/02/27 09:46:46;;;;;;;1.77;0.75;;;6.30;75.20;;;;;;4895929;29;20047;-77
2023/02/27 09:49:18;;;;;;;3.05;1.17;;;6.50;75.30;;;;;;4905472;29;20048;-76
2023/02/27 09:51:44;;;;;;;2.35;1.13;;;6.40;75.60;;;;;;4890662;29;20404;-76
2023/02/27 09:54:11;;;;;;;2.47;0.77;;;6.40;75.90;;;;;;4897952;29;20020;-76
2023/02/27 09:56:59;;;;;;;3.67;0.98;;;6.40;75.70;;;;;;4897495;29;20554;-76
2023/02/27 09:59:41;;;;;;;4.72;1.05;;;6.40;76.20;;;;;;4899217;29;20037;-76
2023/02/27 10:02:21;;;;;;;5.75;1.33;;;6.70;76.30;;;;;;4895486;29;20045;-76
2023/02/27 10:04:47;;;;;;;1.85;0.70;;;6.90;75.90;;;;;;4895282;29;20131;-76
2023/02/27 10:07:40;;;;;;;3.35;0.90;;;6.90;76.60;;;;;;4901076;29;20127;-75
2023/02/27 10:10:19;;;;;;;4.38;1.15;;;6.80;76.10;;;;;;4896250;29;20059;-76
2023/02/27 10:13:35;;;;;;;2.60;0.68;;;6.70;75.30;;;;;;4896006;29;20663;-75
2023/02/27 10:16:02;;;;;;;2.05;0.70;;;6.80;76.50;;;;;;4891683;29;20116;-76
2023/02/27 10:18:34;;;;;;;2.60;0.80;;;6.80;75.50;;;;;;4890410;29;20039;-75
2023/02/27 10:21:05;;;;;;;2.38;0.60;;;6.80;76.00;;;;;;4896443;29;20476;-75
2023/02/27 10:23:54;;;;;;;3.38;0.77;;;6.70;76.40;;;;;;4897251;29;20879;-75
2023/02/27 10:26:35;;;;;;;1.70;0.90;;;6.70;76.60;;;;;;4890834;29;20036;-75
2023/02/27 10:29:28;;;;;;;1.17;0.47;;;6.80;76.10;;;;;;4895395;29;20029;-75
2023/02/27 10:32:20;;;;;;;6.35;0.75;;;6.70;77.50;;;;;;4896791;29;20055;-76
2023/02/27 10:35:09;;;;;;;1.35;0.70;;;6.50;75.80;;;;;;4898062;29;20116;-75
2023/02/27 10:37:46;;;;;;;4.68;0.80;;;6.60;76.20;;;;;;4890108;29;20044;-75
2023/02/27 10:40:13;;;;;;;2.03;0.55;;;6.70;75.80;;;;;;4893897;29;20032;-76
2023/02/27 10:42:40;;;;;;;3.25;1.23;;;6.90;76.70;;;;;;4896444;29;20107;-75
2023/02/27 10:45:11;;;;;;;5.68;0.80;;;7.10;76.70;;;;;;4888624;29;20092;-76
2023/02/27 10:47:37;;;;;;;1.85;0.68;;;7.20;76.20;;;;;;4890942;29;20131;-76
2023/02/27 10:50:18;;;;;;;2.42;0.43;;;7.10;74.60;;;;;;4888751;29;20486;-75
2023/02/27 10:52:53;;;;;;;3.55;0.80;;;7.30;75.80;;;;;;4894705;29;20493;-76
2023/02/27 10:55:27;;;;;;;2.03;1.00;;;7.40;75.60;;;;;;4900226;29;20593;-75
2023/02/27 10:57:54;;;;;;;2.92;0.60;;;7.30;75.00;;;;;;4887617;29;20036;-76
2023/02/27 11:00:32;;;;;;;2.53;0.95;;;7.40;74.90;;;;;;4896471;29;20056;-75
2023/02/27 11:02:58;;;;;;;1.98;0.82;;;7.40;74.80;;;;;;4900902;29;20044;-75
2023/02/27 11:05:33;;;;;;;4.95;0.80;;;7.40;74.70;;;;;;4889852;29;20040;-76
2023/02/27 11:08:19;;;;;;;4.35;0.80;;;7.50;74.90;;;;;;4892364;29;20032;-76
2023/02/27 11:10:54;;;;;;;3.03;0.70;;;7.60;74.20;;;;;;4900236;29;20760;-74
2023/02/27 11:13:24;;;;;;;1.77;0.70;;;8.00;75.10;;;;;;4903490;29;20036;-75
2023/02/27 11:16:05;;;;;;;1.15;0.65;;;7.90;73.80;;;;;;4898048;29;20028;-75
2023/02/27 11:18:32;;;;;;;2.97;0.60;;;7.90;72.60;;;;;;4898186;29;20032;-74
2023/02/27 11:21:22;;;;;;;2.17;0.73;;;7.80;73.50;;;;;;4894907;29;21650;-74
2023/02/27 11:24:02;;;;;;;5.97;0.70;;;8.20;74.90;;;;;;4895690;29;20043;-74
2023/02/27 11:26:28;;;;;;;4.68;0.70;;;8.00;73.10;;;;;;4890321;29;20084;-74
2023/02/27 11:29:06;;;;;;;1.58;0.90;;;8.20;75.00;;;;;;4902647;29;20040;-74
2023/02/27 11:31:35;;;;;;;3.67;1.05;;;8.10;74.10;;;;;;4897082;29;20028;-74
2023/02/27 11:34:03;;;;;;;1.27;0.70;;;8.00;74.20;;;;;;4889570;29;20128;-74
2023/02/27 11:36:44;;;;;;;0.98;0.50;;;7.90;74.00;;;;;;4887068;29;20035;-74
2023/02/27 11:39:24;;;;;;;2.22;0.73;;;7.90;74.10;;;;;;4891422;29;20049;-74
2023/02/27 11:41:50;;;;;;;2.45;0.60;;;8.00;73.80;;;;;;4896676;29;20032;-75
2023/02/27 11:44:20;;;;;;;2.97;0.47;;;8.00;73.40;;;;;;4896999;29;20416;-75
2023/02/27 11:46:46;;;;;;;2.55;0.60;;;7.80;73.70;;;;;;4895529;29;20039;-75
2023/02/27 11:49:53;;;;;;;1.88;0.77;;;8.00;73.80;;;;;;4897440;29;20099;-75
2023/02/27 11:52:31;;;;;;;1.42;0.57;;;8.00;73.50;;;;;;4889596;29;20083;-75
2023/02/27 11:55:00;;;;;;;0.82;0.47;;;8.30;73.40;;;;;;4891629;29;20059;-75
2023/02/27 11:57:37;;;;;;;2.90;1.42;;;8.40;73.30;;;;;;4892180;29;20481;-74
2023/02/27 12:00:21;;;;;;;6.35;1.20;;;8.50;73.10;;;;;;4894099;29;20033;-75
2023/02/27 12:02:59;;;;;;;4.22;1.50;;;9.00;73.50;;;;;;4889959;29;20039;-76
2023/02/27 12:05:35;;;;;;;4.00;1.05;;;9.00;72.90;;;;;;4887240;29;20045;-75
2023/02/27 12:08:16;;;;;;;2.05;0.70;;;9.00;73.30;;;;;;4892931;29;20040;-74
2023/02/27 12:10:47;;;;;;;3.80;1.10;;;8.80;72.20;;;;;;4892998;29;20040;-75
2023/02/27 12:13:25;;;;;;;2.45;1.10;;;8.80;73.60;;;;;;4900928;29;20600;-75
2023/02/27 12:16:18;;;;;;;1.48;0.73;;;8.80;72.40;;;;;;4910683;29;20123;-75
2023/02/27 12:19:22;;;;;;;3.83;1.27;;;8.70;72.10;;;;;;4908962;29;20170;-74
2023/02/27 12:21:57;;;;;;;3.88;1.88;;;9.10;73.60;;;;;;4874882;29;20459;-75
2023/02/27 12:24:43;;;;;;;3.53;1.20;;;9.00;72.10;;;;;;4906285;29;20044;-75
2023/02/27 12:27:20;;;;;;;4.63;1.42;;;9.30;72.40;;;;;;4907592;29;20042;-75
2023/02/27 12:30:04;;;;;;;4.93;2.20;;;9.50;72.10;;;;;;4908811;29;20135;-76
2023/02/27 12:32:42;;;;;;;1.70;0.80;;;9.50;71.80;;;;;;4906983;29;20043;-76
2023/02/27 12:35:35;;;;;;;4.57;0.93;;;9.30;71.90;;;;;;4916944;29;20038;-75
2023/02/27 12:38:02;;;;;;;0.88;0.52;;;8.80;72.10;;;;;;4908370;29;20154;-75
2023/02/27 12:40:38;;;;;;;3.20;0.70;;;8.90;72.70;;;;;;4909262;29;20032;-75
2023/02/27 12:43:33;;;;;;;5.75;1.00;;;9.10;72.70;;;;;;4909622;29;20055;-75
2023/02/27 12:46:02;;;;;;;1.33;0.70;;;9.00;72.80;;;;;;4909446;29;20044;-75
2023/02/27 12:48:52;;;;;;;2.20;0.95;;;9.00;72.70;;;;;;4908670;29;20055;-75
2023/02/27 12:52:01;;;;;;;2.70;1.30;;;8.90;71.50;;;;;;4901511;29;20032;-75
2023/02/27 12:54:55;;;;;;;2.53;1.15;;;9.30;73.90;;;;;;4880557;29;20044;-75
2023/02/27 12:57:42;;;;;;;5.05;1.08;;;9.10;73.30;;;;;;4890461;29;20384;-75
2023/02/27 13:00:11;;;;;;;2.15;0.90;;;9.00;74.00;;;;;;4891991;29;20190;-75
2023/02/27 13:02:50;;;;;;;5.75;1.13;;;9.00;73.60;;;;;;4902966;29;20052;-75
2023/02/27 13:05:31;;;;;;;1.98;0.85;;;9.00;73.80;;;;;;4892270;29;20127;-76
2023/02/27 13:08:28;;;;;;;3.92;1.65;;;9.00;73.60;;;;;;4892755;29;20123;-74
2023/02/27 13:11:03;;;;;;;2.70;1.23;;;9.00;73.60;;;;;;4886842;29;20056;-74
2023/02/27 13:13:38;;;;;;;1.55;1.00;;;9.20;73.30;;;;;;4894261;29;20036;-74
2023/02/27 13:16:13;;;;;;;2.90;1.13;;;9.10;73.00;;;;;;4900101;29;20032;-74
2023/02/27 13:19:03;;;;;;;2.65;0.90;;;9.20;72.80;;;;;;4888654;29;20044;-74
2023/02/27 13:21:38;;;;;;;3.25;1.00;;;9.10;73.30;;;;;;4896137;29;20047;-74
2023/02/27 13:24:23;;;;;;;3.45;0.90;;;9.10;73.90;;;;;;4897072;29;20036;-73
2023/02/27 13:26:51;;;;;;;1.83;0.93;;;9.10;73.80;;;;;;4894010;29;20040;-74
2023/02/27 13:29:20;;;;;;;1.75;0.80;;;9.10;73.80;;;;;;4889875;29;20032;-74